Results by/Résultats par Info:[email protected] Phone: (613)260-0994

                                    K-TOWN TRIATHLON

                                 Sunday July 31st, 2005

                         Confederation Park, Kingston, Ontario

                        Overall Results - Short Course Triathlon

  -----FINAL----- ----------------------- ------------ -------------------- ----           750m                         30km                   7.2km
                                                       Category                     ------SWIM + T1-------    ----------BIKE--------    -------RUN + T2------- -------
    Pos     Time  Name                    City         Plc/Total Category     #      Cat  Ovr  Time  /100m     Cat Ovr Time  km/hr      Cat  Ovr  Time     km  Penalty
  ------  ------- ----------------------- ------------ -------------------- ----    ----------------------    ----------------------    ---------------------- -------
    1     1:23:27 Ka-Yu LAW               Kingston       1/2   Elite Men     293    1      1   11:24  1:32    1      1   44:17  40.6     2      2   27:48  3:52         
    2     1:27:04 Jairus STREIGHT         Kingston       2/2   Elite Men     322    2      2   12:01  1:37    2      3   47:38  37.8     1      1   27:27  3:49         
    3     1:30:44 Steven BLOSTEIN         Kingston       1/24  M40 - 44      418    1      5   12:35  1:41    6     11   49:01  36.7     1      4   29:09  4:03         
    4     1:32:08 Robert WILSON           Kingston       1/9   M25 - 29      241    1      6   12:36  1:41    1     10   48:58  36.8     2     12   30:36  4:15         
    5     1:33:22 Doug CAMPBELL           Niles          1/33  M35 - 39      243    2     29   14:46  1:59    1     12   49:15  36.5     2      5   29:22  4:05         
    6     1:33:33 Bill DEE                Toronto        1/21  M30 - 34      446    3     16   13:49  1:51    1      7   48:30  37.1     2     17   31:14  4:21         
    7     1:34:13 Keith DUSTIN            Kingston       2/24  M40 - 44      459    7     45   15:44  2:06    4      6   48:23  37.2     2      8   30:06  4:11         
    8     1:34:36 Murray TOUGH            Kingston       3/24  M40 - 44      259    8     47   15:46  2:07    2      4   48:06  37.4     4     14   30:45  4:17         
    9     1:34:48 Bill MCILROY            Perth Road     4/24  M40 - 44      354    6     44   15:36  2:05    3      5   48:12  37.3     6     16   31:01  4:19         
   10 CLY 1:35:12 Richard CADMAN          Battersea      5/24  M40 - 44      218    2     17   13:51  1:51    5      9   48:50  36.9     7     28   32:32  4:32         
   11     1:35:29 Dave FARNELL            Inverary       1/5   Junior Men    313    1     18   14:00  1:52    2     30   51:19  35.1     2      9   30:11  4:12         
   12     1:36:30 Lianne ARCHAMBAULT      Kingston       1/21  W35 - 39      383    1      4   12:32  1:41    1     26   50:38  35.5     1     38   33:21  4:38         
   13     1:37:05 Peter HAMILTON          Ottawa         6/24  M40 - 44      302    5     31   14:51  1:59    1      2   47:37  37.8     11    52   34:38  4:49         
   14     1:37:16 Christopher GRIMWOOD    Kingston       2/9   M25 - 29      205    3     11   13:28  1:48    7     60   53:13  33.8     1     11   30:35  4:15         
   15     1:37:55 Darryl SMITH            Kingston       2/21  M30 - 34      222    4     32   14:51  1:59    2     32   51:32  34.9     3     21   31:33  4:23         
   16     1:38:05 David PETERSON          Napanee        2/33  M35 - 39      455    3     34   15:04  2:01    8     34   51:36  34.9     4     20   31:25  4:22         
   17     1:38:19 Gary TRANMER            Kingston       1/14  M50 - 54      204    3     21   14:14  1:54    1     27   51:04  35.2     3     32   33:02  4:36         
   18     1:38:23 Eric FETTERLEY          Bellevile      3/33  M35 - 39      427    7     71   17:02  2:17    2     14   49:15  36.5     5     25   32:07  4:28         
   19     1:38:26 Fred TOPHAM             Kingston       7/24  M40 - 44      435    13   102   17:44  2:22    9     22   50:17  35.8     3     10   30:26  4:14         
   20     1:38:29 Michael MCDONOUGH       Kingston       3/9   M25 - 29      340    5     38   15:15  2:02    3     31   51:21  35.1     3     23   31:54  4:26         
   21     1:38:36 Mark DAVIS              Peterborough   1/34  M45 - 49      453    2     26   14:44  1:58    4     28   51:12  35.2     2     30   32:42  4:33         
   22     1:38:47 Sam GOUETT              Kingston       2/5   Junior Men    393    4    130   18:30  2:28    1     23   50:17  35.8     1      7   30:01  4:11         
   23     1:38:59 Simon WALKER            Haydon         4/33  M35 - 39      401    14    88   17:22  2:19    14    50   52:32  34.3     1      3   29:06  4:03         
   24     1:39:11 Kevin ALEXANDER         Oshawa         8/24  M40 - 44      412    17   118   18:05  2:25    8     20   50:11  35.9     5     15   30:56  4:18         
   25     1:39:18 Damon DAGNONE           Kingston       3/21  M30 - 34      310    2     13   13:33  1:49    5     69   53:39  33.6     4     26   32:07  4:28         
   26     1:39:24 Bob MCGRAW              Kingston       2/34  M45 - 49      357    7     67   16:53  2:16    6     41   51:54  34.7     1     13   30:38  4:16         
   27     1:39:34 Ian JOINER              Gatineau       5/33  M35 - 39      410    1     22   14:16  1:55    11    44   52:12  34.5     8     34   33:07  4:36         
   28     1:39:47 John MARCH              Ottawa         2/14  M50 - 54      417    1      3   12:19  1:39    5     58   53:02  33.9     4     51   34:27  4:47         
   29     1:40:12 Denis MOORE             Napanee        9/24  M40 - 44      332    10    75   17:08  2:17    7     16   49:28  36.4     9     41   33:37  4:41         
   30     1:40:16 Dave GOUETT             Kingston       6/33  M35 - 39      394    5     66   16:52  2:15    6     25   50:37  35.6     7     31   32:48  4:34         
   31     1:40:19 Margot HALL             Ottawa         1/28  W30 - 34      348    4     23   14:20  1:55    1     40   51:53  34.7     2     45   34:08  4:45         
   32     1:40:22 Kevin HALL              Kingston       3/34  M45 - 49      266    3     27   14:45  1:58    1     15   49:26  36.4     8     70   36:12  5:02         
   33     1:40:40 William COOPER          Kingston       4/34  M45 - 49      367    4     37   15:10  2:02    5     36   51:47  34.8     4     43   33:43  4:41         
   34     1:40:52 Savvas FRANTZESKOS      Kingston       4/21  M30 - 34      297    8     99   17:41  2:22    4     66   53:34  33.6     1      6   29:38  4:07         
   35     1:41:09 Jeff DEVILLE            Trenton        7/33  M35 - 39      391    21   146   19:01  2:33    4     19   49:41  36.2     6     27   32:27  4:31         
   36     1:41:10 James MATHERS           Toronto        3/14  M50 - 54      326    4     54   16:08  2:10    3     48   52:29  34.3     2     29   32:33  4:32         
   37     1:41:14 Rick MANDERS            Oshawa         4/14  M50 - 54      452    7     76   17:10  2:18    2     43   52:10  34.5     1     24   31:55  4:26         
   38     1:41:33 Mitch FALLIS            Yarker        10/24  M40 - 44      233    9     59   16:18  2:11    10    29   51:16  35.1     10    44   34:01  4:44         
   39     1:41:35 Don COWIN               RR3 Bath       5/34  M45 - 49      202    1     24   14:22  1:55    9     59   53:05  33.9     5     46   34:09  4:45         
   40     1:41:57 John DUFFNEY            Kingston       8/33  M35 - 39      388    9     77   17:11  2:18    7     33   51:36  34.9     9     35   33:11  4:37         
   41     1:42:14 Dan HIDER               Mississauga    1/7   M20 - 24      488    4    144   18:59  2:32    1      8   48:36  37.0     4     53   34:40  4:49         
   42     1:42:16 Gerhard PRATT           Kingston       6/34  M45 - 49      223    11   113   18:00  2:24    2     17   49:30  36.4     6     55   34:47  4:50         
   43     1:42:24 Jonathan BELL           Belleville     4/9   M25 - 29      451    4     33   15:00  2:00    6     46   52:26  34.3     4     57   35:00  4:52         
   44     1:42:45 Sean BYRON              Kingston       9/33  M35 - 39      434    4     57   16:12  2:10    16    55   52:58  34.0     10    40   33:36  4:40         
   45     1:42:47 Terry OBRIEN            Kingston       5/14  M50 - 54      361    2      9   13:07  1:45    4     52   52:39  34.2     7     83   37:02  5:09         
   46     1:42:56 Sheldon COOK            RR1 Inverary  10/33  M35 - 39      303    6     68   16:54  2:16    17    81   54:39  32.9     3     19   31:24  4:22         
   47     1:43:43 Timothy DESSON          Ottawa         5/9   M25 - 29      356    6     41   15:19  2:03    4     37   51:50  34.7     5     76   36:35  5:05         
   48     1:43:43 Emma SAALTINK           Cornwall       1/4   Junior Women  290    1      8   12:56  1:44    1     94   55:27  32.5     1     60   35:20  4:55         
   49     1:43:54 Andrew SLOT             Kingston       6/9   M25 - 29      461    2      7   12:37  1:41    5     39   51:51  34.7     8    134   39:28  5:29         
   50     1:44:15 Feleisha REITER         Sault Ste. M   1/14  W25 - 29      439    2     36   15:09  2:02    4    128   57:52  31.1     1     18   31:14  4:21         
   51     1:44:18 Matt KENNY              Toronto        2/7   M20 - 24      378    1     39   15:17  2:03    5     82   54:40  32.9     3     49   34:22  4:47         
   52     1:44:31 Jeff MCCUE              Kingston       3/7   M20 - 24      338    3    125   18:24  2:28    2     42   51:57  34.6     2     47   34:10  4:45         
   53     1:44:39 Jairo MU±OZ             Kingston      11/33  M35 - 39      331    15    89   17:24  2:20    3     18   49:31  36.4     18    96   37:45  5:15         
   54     1:44:42 Michael NUTTALL         London         7/9   M25 - 29      220    8     97   17:36  2:21    2     13   49:15  36.5     7    100   37:52  5:16         
   55     1:45:02 Brian FARNELL           RR 1 Inverar   6/14  M50 - 54      258    5     63   16:38  2:14    7     62   53:18  33.8     5     58   35:07  4:53         
   56     1:45:14 Alan WONG               Kingston       4/7   M20 - 24      482    6    165   19:40  2:38    3     72   53:49  33.4     1     22   31:46  4:25         
   57     1:45:38 Craig MEEKS             Roslin        12/33  M35 - 39      300    10    79   17:12  2:18    10    38   51:50  34.7     15    78   36:38  5:06         
   58     1:45:42 Ryan TRAVERS            North Bay      5/21  M30 - 34      484    6     96   17:34  2:21    3     49   52:31  34.3     6     61   35:37  4:57         
   59     1:45:43 Mark ROBERTSON          Burlington     6/21  M30 - 34      447    11   120   18:11  2:26    7     79   54:28  33.0     5     33   33:05  4:36         
   60     1:45:48 Andrew THEW             Belleville    13/33  M35 - 39      216    18   123   18:17  2:27    15    53   52:50  34.1     14    54   34:41  4:49         
   61     1:45:50 Eric LINDENBERG         Belleville     7/34  M45 - 49      486    19   173   19:54  2:40    7     51   52:37  34.2     3     37   33:20  4:38         
   62     1:46:31 Tara RAWLUK             Stirling       2/28  W30 - 34      230    3     20   14:11  1:54    4    103   56:15  32.0     4     67   36:05  5:01         
   63     1:46:57 Derek OUELLET           Kingston       8/34  M45 - 49      219    9     90   17:26  2:20    3     24   50:17  35.8     15   128   39:15  5:27         
   64     1:47:22 Andrew MACKIE           Montreal      14/33  M35 - 39      336    19   126   18:24  2:28    18    83   54:44  32.9     12    48   34:15  4:46         
   65     1:47:26 Maxime FEUILLAT         Kingston       8/9   M25 - 29      247    7     82   17:16  2:19    8     67   53:34  33.6     6     77   36:36  5:05         
   66     1:47:28 Nicole DENELZEN         Kingston       3/28  W30 - 34      364    8     70   17:00  2:16    2     77   54:13  33.2     5     74   36:17  5:03         
   67     1:47:39 Stephane CHAPADOS       Ottawa        11/24  M40 - 44      423    4     30   14:49  1:59    11    64   53:25  33.7     15   132   39:26  5:29         
   68     1:47:52 Allan MERPAW            Brockville     1/4   M55 - 59      229    1     52   16:00  2:08    2     73   53:55  33.4     1    101   37:58  5:17         
   69     1:47:54 Scott SPENCER           Seeleys Bay    9/34  M45 - 49      265    8     69   16:56  2:16    8     54   52:56  34.0     12   103   38:03  5:18         
   70     1:47:58 David DYER              Ottawa         2/4   M55 - 59      212    2     64   16:49  2:15    1     57   53:02  33.9     2    107   38:09  5:18         
   71     1:48:50 Stacey BERDAN           Tweed          2/21  W35 - 39      210    2     35   15:05  2:01    3    130   58:00  31.0     2     63   35:45  4:58         
   72 CLY 1:49:14 Jay C. JAMES            Napanee       15/33  M35 - 39      232    24   166   19:42  2:38    5     21   50:15  35.8     23   131   39:19  5:28         
   73     1:49:15 Julie WINTERS           Yadkinville    1/10  W40 - 44      274    1     19   14:03  1:53    1     68   53:37  33.6     6    169   41:36  5:47         
   74     1:49:21 Sasa PETRICIC           Ottawa        12/24  M40 - 44      462    12    95   17:33  2:21    15    97   55:41  32.3     12    68   36:07  5:01         
   75     1:49:22 David MORTON            Nepean        10/34  M45 - 49      337    23   185   20:19  2:43    12    70   53:48  33.5     7     59   35:16  4:54         
   76     1:49:32 Stephen OIKAWA          Kingston      16/33  M35 - 39      304    20   143   18:57  2:32    12    45   52:18  34.4     21   112   38:17  5:19         
   77     1:49:33 Charles MEEHAN          Mississauga   11/34  M45 - 49      217    15   136   18:45  2:30    13    74   54:01  33.3     10    80   36:48  5:07         
   78     1:49:36 Lisa BADALATO           Newmarket      4/28  W30 - 34      236    6     53   16:07  2:09    10   166 1:00:16  29.9     1     36   33:13  4:37         
   79 CLY 1:50:02 Ken POLSON              Kanata        12/34  M45 - 49      377    14   128   18:29  2:28    10    63   53:22  33.7     13   109   38:12  5:19         
   80     1:50:04 Suzanne DOSTALER        Kingston       1/14  W45 - 49      426    8    182   20:09  2:42    1     88   55:09  32.6     1     56   34:47  4:50         
   81     1:50:16 Mark SHEWFELT           Ottawa         7/21  M30 - 34      372    7     98   17:39  2:22    6     71   53:49  33.4     13   119   38:48  5:24         
   82     1:50:17 Dave WHITE              Ottawa         7/14  M50 - 54      214    11   172   19:51  2:39    6     61   53:17  33.8     8     85   37:10  5:10         
   83     1:50:25 Ben BELL                Belleville     5/7   M20 - 24      460    7    177   20:01  2:41    4     75   54:04  33.3     6     75   36:21  5:03         
   84     1:50:33 John HARTNETT           Kingston       6/7   M20 - 24      445    2     40   15:18  2:03    7    154   59:25  30.3     5     64   35:51  4:59         
   85     1:50:46 Tony BARTON             Kingston      17/33  M35 - 39      242    12    86   17:20  2:19    21    92   55:22  32.5     20   104   38:04  5:18         
   86     1:50:51 Dan MCIVER              Kitchener     18/33  M35 - 39      296    13    87   17:21  2:19    13    47   52:28  34.3     26   161   41:02  5:42         
   87     1:51:29 Carolyn BROWN           Kingston       1/12  W20 - 24      252    2    107   17:53  2:24    1    109   56:35  31.8     3     84   37:02  5:09         
   88     1:51:32 Kyra PYKE               Kingston       2/14  W25 - 29      363    5     93   17:30  2:20    3    127   57:52  31.1     2     69   36:10  5:02         
   89     1:51:32 Shannon HILL            Kingston       5/28  W30 - 34      282    5     50   15:54  2:08    9    160   59:45  30.1     3     65   35:55  5:00         
   90     1:51:45 Mark BENSON             Harrowsmith    8/14  M50 - 54      397    6     65   16:51  2:15    11   120   57:22  31.4     9     91   37:33  5:13         
   91     1:51:50 Erika MCEACHRAN         Kingston       3/14  W25 - 29      226    1     28   14:45  1:58    1    112   56:41  31.8     7    151   40:25  5:37         
   92     1:51:58 Helga GRODZINSKI        Kingston       2/10  W40 - 44      249    3     73   17:04  2:17    2    107   56:21  31.9     2    118   38:34  5:22         
   93     1:51:59 Michael BURLEIGH        Montreal      19/33  M35 - 39      306    28   196   20:55  2:48    22   113   56:42  31.7     13    50   34:23  4:47         
   94     1:52:19 Dave GROSS              Clifton Park   9/14  M50 - 54      491    9    156   19:20  2:35    10   106   56:20  32.0     6     79   36:41  5:06         
   95     1:52:20 Gerry HANLEY            Napanee       13/24  M40 - 44      257    11    78   17:11  2:18    12    86   54:50  32.8     17   149   40:19  5:36         
   96     1:52:28 Ashley TRENHAILE        Newburgh       2/4   Junior Women  433    4     61   16:25  2:12    2    136   58:28  30.8     2     93   37:36  5:14         
   97     1:52:37 Brian BECK              Kingston      20/33  M35 - 39      208    25   174   19:57  2:40    19    85   54:50  32.8     19    99   37:52  5:16         
   98     1:52:40 Jennifer JACKSON        Kingston       4/14  W25 - 29      386    8    163   19:39  2:38    2    115   56:45  31.7     3     73   36:16  5:03         
   99     1:52:55 Andres PUGI             Mississauga   14/24  M40 - 44      390    14   106   17:50  2:23    14    96   55:32  32.4     16   138   39:34  5:30         
  100     1:52:58 Tom SKINNER             Kingston       7/7   M20 - 24      335    5    164   19:39  2:38    6     89   55:12  32.6     7    105   38:08  5:18         
  101     1:53:00 Bryan SARAKA            Kingston      21/33  M35 - 39      415    22   149   19:04  2:33    9     35   51:42  34.8     28   175   42:15  5:52         
  102     1:53:00 Denise KYER             Kingston       2/12  W20 - 24      403    1     46   15:45  2:06    5    162   59:49  30.1     4     88   37:27  5:13         
  103     1:53:00 Terry BECKMAN           Kingston      15/24  M40 - 44      398    18   121   18:16  2:27    16    99   55:47  32.3     14   125   38:58  5:25         
  104     1:53:05 Jennifer BROXTERMAN     Kingston       3/12  W20 - 24      407    3    111   18:00  2:24    2    118   57:16  31.4     5     98   37:50  5:16         
  105     1:53:10 Dorelle HINTON          Kingston       3/4   Junior Women  323    2     15   13:44  1:50    3    167 1:00:31  29.7     3    124   38:56  5:25         
  106     1:53:19 Michael CAMPBELL        Bethesda      22/33  M35 - 39      244    17   119   18:09  2:26    26   125   57:43  31.2     16    89   37:27  5:13         
  107 CLY 1:53:32 Chris COUPLAND          Kingston       8/21  M30 - 34      324    9    104   17:45  2:22    10   110   56:38  31.8     15   126   39:10  5:27         
  108 CLY 1:53:33 William HAMES           Belleville     9/21  M30 - 34      334    5     80   17:14  2:18    8    101   55:53  32.2     16   154   40:28  5:38         
  109     1:53:38 Geoff SHEWFELT          Clayton       10/21  M30 - 34      329    13   160   19:37  2:37    11   117   57:05  31.5     8     81   36:57  5:08         
  110     1:53:40 Angela BROWN            Bath           6/28  W30 - 34      272    1     10   13:17  1:47    14   185 1:02:15  28.9     9    108   38:09  5:18         
  111     1:53:45 Jill SCOTT              Kingston       3/21  W35 - 39      312    7    108   17:56  2:24    2    108   56:35  31.8     7    129   39:15  5:28         
  112     1:54:13 Curtis MONNIER          Harrowsmith   23/33  M35 - 39      448    11    84   17:17  2:19    25   122   57:28  31.3     24   136   39:29  5:29         
  113     1:54:18 Shelley MULROONEY       Kingston       4/21  W35 - 39      256    5     94   17:33  2:21    4    134   58:19  30.9     5    113   38:27  5:21         
  114     1:54:27 Christine LATTIMORE     Kingston       2/14  W45 - 49      359    1     43   15:26  2:04    4    150   59:12  30.4     2    146   39:49  5:32         
  115     1:54:33 Cindy CHENIER           Georgetown     3/10  W40 - 44      440    2     48   15:52  2:07    4    143   58:51  30.6     3    147   39:50  5:32         
  116     1:54:38 Robert GRILLS           Roslin        13/34  M45 - 49      245    18   169   19:47  2:39    22   140   58:35  30.7     9     72   36:16  5:03         
  117     1:54:45 Tanya BYRON             Kingston       5/21  W35 - 39      432    10   129   18:30  2:28    5    137   58:30  30.8     4     97   37:46  5:15         
  118     1:54:55 Greg PELHAM             Toronto       24/33  M35 - 39      470    26   191   20:35  2:45    29   169 1:00:42  29.7     11    42   33:39  4:41         
  119     1:55:00 Bev WHITEN              Kingston       6/21  W35 - 39      328    6    103   17:44  2:22    8    158   59:39  30.2     3     95   37:38  5:14         
  120     1:55:03 Lindsay NETTLEFOLD      Kingston       4/12  W20 - 24      307    8    154   19:16  2:35    4    161   59:45  30.1     2     66   36:03  5:01         
  121     1:55:04 Mark WALDRON            Kingston      16/24  M40 - 44      368    20   152   19:12  2:34    20   186 1:02:18  28.9     8     39   33:35  4:40         
  122     1:55:06 Rick HUNT               Kingston      14/34  M45 - 49      239    27   208   21:34  2:53    14    76   54:07  33.3     16   133   39:26  5:29         
  123 CLY 1:55:11 Dave RAMSDEN            Kingston      15/34  M45 - 49      318    12   114   18:01  2:25    15    84   54:48  32.8     22   177   42:23  5:54         
  124 CLY 1:55:16 Mike TOBIAS             Toronto       17/24  M40 - 44      285    3     25   14:38  1:57    17   132   58:03  31.0     19   180   42:36  5:55         
  125     1:55:16 Kerry PHILLIPS          Belleville    16/34  M45 - 49      294    22   184   20:15  2:42    11    65   53:32  33.6     17   137   39:31  5:30    2:00 
  126     1:55:18 Jennifer BROWN          Gatineau       7/28  W30 - 34      408    2     14   13:36  1:49    16   208 1:04:14  28.0     8     90   37:29  5:13         
  127     1:55:18 Andrew WHITE            Uxbridge      11/21  M30 - 34      339    12   157   19:23  2:35    12   123   57:29  31.3     12   114   38:28  5:21         
  128     1:55:35 Dan ATACK               Toronto       25/33  M35 - 39      395    27   192   20:40  2:46    24   119   57:18  31.4     17    94   37:38  5:14         
  129 CLY 1:55:42 Kathy BRADLEY           Ottawa         8/28  W30 - 34      253    24   231   24:08  3:14    3     78   54:19  33.1     7     87   37:16  5:11         
  130     1:55:43 Rick BAIRD              Ottawa        17/34  M45 - 49      422    6     62   16:30  2:12    24   157   59:35  30.2     19   142   39:38  5:31         
  131     1:55:48 Stacy JOWETT            Seeleys bay    5/14  W25 - 29      419    4     83   17:16  2:19    5    165 1:00:00  30.0     5    117   38:32  5:22         
  132 CLY 1:56:13 Rob RENAUD              Yarker        18/34  M45 - 49      203    10   101   17:43  2:22    18    98   55:43  32.3     23   183   42:48  5:57         
  133     1:56:20 Zach HUNT               Kingston       3/5   Junior Men    240    2     55   16:10  2:10    3     56   53:01  34.0     5    226   47:10  6:34         
  134     1:56:40 Jennifer BIRKAS         Gananoque      7/21  W35 - 39      268    9    110   17:59  2:24    6    152   59:14  30.4     8    135   39:28  5:29         
  135     1:56:57 Brian MACGILLIVRAY      Kingston      26/33  M35 - 39      251    8     74   17:04  2:17    20    87   55:06  32.7     31   207   44:47  6:14         
  136     1:57:03 John CLINKARD           Toronto        1/2   M60 - 64      466    1     81   17:15  2:18    1    138   58:31  30.8     1    165   41:18  5:45         
  137     1:57:17 Glenn LAMOTHE           London        12/21  M30 - 34      309    1     12   13:30  1:48    9    105   56:17  32.0     21   231   47:32  6:36         
  138     1:57:28 Gina GUSHUE             Kingston       3/14  W45 - 49      314    10   206   21:31  2:53    2     95   55:32  32.4     3    153   40:26  5:37         
  139     1:57:42 Cindy HEALY             Kingston       4/10  W40 - 44      206    6    159   19:35  2:37    3    111   56:39  31.8     5    167   41:29  5:46         
  140     1:57:51 Greg KERR               Tweed         10/14  M50 - 54      211    8    138   18:47  2:31    9    100   55:50  32.2     13   188   43:15  6:01         
  141 CLY 1:57:57 Terry HODGE             Brockville    18/24  M40 - 44      450    23   210   21:40  2:54    13    91   55:19  32.5     18   160   40:59  5:42         
  142     1:58:23 Louise BUCHANAN         Kingston       9/28  W30 - 34      396    20   220   22:37  3:01    7    139   58:33  30.7     6     86   37:14  5:11         
  143     1:58:29 Lexie CODE              Toronto       10/28  W30 - 34      344    16   188   20:27  2:44    6    133   58:18  30.9     11   143   39:45  5:32         
  144     1:58:38 Mark GLENDINNING        Kingston ont  27/33  M35 - 39      414    23   162   19:38  2:38    28   153   59:24  30.3     25   141   39:37  5:31         
  145     1:58:39 Michael BRUNDAGE        Kingston      19/34  M45 - 49      316    28   214   22:05  2:57    17    93   55:27  32.5     20   163   41:08  5:43         
  146     1:58:54 Cale OKEEFFE            Kingston       4/5   Junior Men    444    3    127   18:27  2:28    4    116   57:00  31.6     3    190   43:29  6:03         
  147     1:58:58 Lynn NOONAN             Belleville     4/14  W45 - 49      288    7    180   20:06  2:41    3    102   56:09  32.1     4    157   40:44  5:40    2:00 
  148     1:59:13 Maria CRONK             Kingston       5/14  W45 - 49      360    4    100   17:42  2:22    5    155   59:34  30.2     6    173   41:58  5:50         
  149     1:59:21 Ross MCSHANE            Ottawa        20/34  M45 - 49      404    26   204   21:22  2:51    19   104   56:16  32.0     21   172   41:44  5:48         
  150 CLY 1:59:37 Ann MCDOUGALL           Perth Road V   8/21  W35 - 39      200    8    109   17:58  2:24    9    163   59:58  30.0     10   171   41:43  5:48         
  151     1:59:39 Doug LAUGHTON           Ottawa        19/24  M40 - 44      387    16   115   18:03  2:25    22   200 1:03:23  28.4     13   110   38:14  5:19         
  152     2:00:04 Ian SEMPOWSKI           Kingston      20/24  M40 - 44      225    15   112   18:00  2:24    18   135   58:27  30.8     22   194   43:38  6:04         
  153     2:00:19 Tony MANASTERSKY        Oakville      21/34  M45 - 49      270    13   124   18:19  2:27    23   142   58:49  30.6     24   187   43:12  6:00         
  154     2:00:20 Grazia SCOPPIO          Kingston       5/10  W40 - 44      325    5    155   19:20  2:35    5    164   59:59  30.0     4    162   41:02  5:42         
  155     2:00:21 John DANCE              Ottawa        11/14  M50 - 54      215    10   167   19:43  2:38    14   172 1:00:54  29.6     11   144   39:45  5:32         
  156     2:00:24 Liana STORONIAK         North York    11/28  W30 - 34      468    11   137   18:47  2:31    13   182 1:01:52  29.1     12   145   39:47  5:32         
  157     2:00:26 Scott SLACK             Napanee       28/33  M35 - 39      301    31   234   24:31  3:17    23   114   56:45  31.7     22   127   39:12  5:27         
  158     2:00:39 Dianne FOX              Kingston      12/28  W30 - 34      438    7     58   16:18  2:11    12   180 1:01:35  29.2     18   182   42:47  5:57         
  159     2:00:40 Margaret EVANS          Toronto       13/28  W30 - 34      345    15   187   20:26  2:44    8    141   58:38  30.7     15   170   41:37  5:47         
  160     2:00:46 Brett GOODWIN           Kingston      13/21  M30 - 34      465    17   225   23:03  3:05    16   170 1:00:46  29.6     9     82   36:57  5:08         
  161     2:00:49 Frank LUSCHER           Newcastle     22/34  M45 - 49      254    17   168   19:45  2:38    16    90   55:17  32.6     30   216   45:48  6:22         
  162     2:01:10 Genevieve DOSTALER      Kingston       4/4   Junior Women  425    3     51   15:58  2:08    4    195 1:02:56  28.6     4    176   42:17  5:53         
  163     2:01:17 Karen GREEN             Ottawa         1/5   W50 - 54      416    1    131   18:32  2:29    1    191 1:02:32  28.8     2    148   40:14  5:36         
  164     2:01:19 Lawrence RULISON        Philadelphia  14/21  M30 - 34      374    14   186   20:21  2:43    18   192 1:02:42  28.7     11   111   38:16  5:19         
  165     2:01:32 Tegan UPJOHN            Kingston       5/12  W20 - 24      463    4    140   18:51  2:31    3    151   59:12  30.4     8    191   43:30  6:03         
  166     2:01:41 Cindy COWIN             RR3 Bath       6/14  W45 - 49      201    6    176   20:01  2:41    7    173 1:00:56  29.5     5    158   40:44  5:40         
  167     2:01:49 Brian MCDONALD          Kingston      23/34  M45 - 49      276    5     49   15:53  2:07    26   171 1:00:47  29.6     26   210   45:10  6:17         
  168     2:01:57 Peter WONG              Scarborough   15/21  M30 - 34      373    20   235   24:39  3:18    15   149   59:11  30.4     10   106   38:08  5:18         
  169     2:02:29 Everhard OLIVIERI-MUNRO Newmarket     16/21  M30 - 34      475    19   233   24:28  3:16    14   146   59:06  30.5     14   123   38:56  5:25         
  170     2:02:31 Eric SCHJERNING         Etobicoke     24/34  M45 - 49      385    30   237   24:49  3:19    25   159   59:44  30.1     11   102   37:59  5:17         
  171     2:02:45 Andre DOSTALER          Kingston      12/14  M50 - 54      424    13   258   29:44  3:58    8     80   54:33  33.0     10   115   38:29  5:21         
  172     2:02:48 Kira MCNEELY            Kingston       9/21  W35 - 39      281    14   211   21:43  2:54    7    156   59:34  30.2     9    168   41:32  5:47         
  173     2:02:57 Mackenzie BOWMAN        Gananoque      6/14  W25 - 29      437    3     42   15:26  2:04    10   243 1:09:58  25.7     4     92   37:34  5:13         
  174     2:03:21 Jim KEECH               Bath          25/34  M45 - 49      237    16   142   18:54  2:32    31   210 1:04:51  27.8     18   140   39:36  5:30         
  175     2:03:53 Cheryl ENDERS           Kingston       7/14  W45 - 49      353    2     56   16:10  2:10    8    199 1:03:18  28.4     9    199   44:25  6:11         
  176     2:04:12 Jennifer CHAMBERS       Peterborough  14/28  W30 - 34      343    10   132   18:34  2:29    18   214 1:05:13  27.6     14   152   40:26  5:37         
  177     2:04:15 Katie OBRIEN            Kingston       7/14  W25 - 29      362    11   202   21:19  2:51    7    188 1:02:26  28.8     9    156   40:32  5:38         
  178     2:04:28 Irvine FRANCIS          Cornwall       3/4   M55 - 59      366    3    150   19:08  2:33    3    124   57:32  31.3     4    232   47:49  6:39         
  179     2:04:40 Karen JUTZI             Toronto       15/28  W30 - 34      375    21   222   22:53  3:03    5    121   57:26  31.3     19   198   44:22  6:10         
  180     2:04:47 Kristina MURPHY         Kingston       6/12  W20 - 24      392    10   181   20:07  2:41    6    202 1:03:30  28.3     7    164   41:12  5:44         
  181     2:04:55 Nancy BRENNAN           Kingston       1/3   W55 - 59      420    1    122   18:17  2:27    1    205 1:03:42  28.3     1    185   42:57  5:58         
  182     2:05:12 Siobhan KELLY           Kingston      10/21  W35 - 39      308    11   135   18:40  2:30    10   184 1:02:03  29.0     13   201   44:30  6:11         
  183     2:05:12 Steel JOSEY             RR1 Inverary  11/21  W35 - 39      305    13   199   21:09  2:50    13   213 1:05:09  27.6     6    121   38:55  5:25         
  184 CLY 2:05:20 Rory KILBURN            Kingston      26/34  M45 - 49      284    25   195   20:49  2:47    32   219 1:05:38  27.4     14   120   38:54  5:25         
  185     2:05:27 Beth BRUCE              Kingston      16/28  W30 - 34      399    13   153   19:14  2:34    19   230 1:06:58  26.9     10   130   39:15  5:28         
  186     2:05:34 Alain GOSSELIN          Kingston      27/34  M45 - 49      441    29   215   22:12  2:58    21   129   57:55  31.1     29   215   45:28  6:19         
  187     2:06:02 Geoff DEIR              Gananoque     17/21  M30 - 34      315    10   116   18:04  2:25    20   194 1:02:46  28.7     19   211   45:13  6:17         
  188     2:06:17 Diane URIE              Kingston      12/21  W35 - 39      330    3     60   16:21  2:11    15   221 1:05:47  27.4     12   196   44:10  6:08         
  189     2:06:22 Richard BONATHAN        Stirling      18/21  M30 - 34      227    15   189   20:31  2:45    19   193 1:02:43  28.7     17   186   43:09  6:00         
  190     2:06:29 Corrina WILSON          Kingston       8/14  W25 - 29      228    6    105   17:47  2:23    6    178 1:01:29  29.3     11   227   47:14  6:34         
  191     2:06:38 Brett LOCKERBIE         Kingston      28/34  M45 - 49      275    24   193   20:41  2:46    27   175 1:01:04  29.5     25   209   44:54  6:15         
  192     2:06:49 Caroline VANBRUINSWAARD Medway        13/21  W35 - 39      286    4     92   17:28  2:20    14   220 1:05:46  27.4     11   192   43:36  6:04         
  193     2:06:57 Barry DAVIES            Ottawa        19/21  M30 - 34      428    16   190   20:33  2:45    13   144   58:54  30.6     20   230   47:31  6:36         
  194     2:07:11 Mike ROSS               Newmarket     21/24  M40 - 44      277    19   148   19:02  2:33    23   215 1:05:16  27.6     20   184   42:53  5:58         
  195     2:07:34 Diane BEDROSSIAN        Kingston       7/12  W20 - 24      381    7    151   19:09  2:34    12   249 1:12:43  24.8     1     62   35:42  4:58         
  196     2:07:47 Patti GRILLS            Roslin         8/14  W45 - 49      246    9    194   20:44  2:46    9    209 1:04:29  27.9     7    178   42:34  5:55         
  197     2:07:53 Jean PAQUIN             Inverary      17/28  W30 - 34      485    12   139   18:49  2:31    22   237 1:08:42  26.2     13   150   40:24  5:37         
  198 CLY 2:08:07 Rick BENN               Mississauga   29/33  M35 - 39      321    29   203   21:21  2:51    32   196 1:03:11  28.5     29   193   43:36  6:04         
  199     2:08:37 Keith WILKIE            North syracu  29/34  M45 - 49      487    21   179   20:06  2:41    28   181 1:01:48  29.1     31   221   46:45  6:30         
  200     2:08:40 Yvon DEMERS             Amherstview   22/24  M40 - 44      483    22   205   21:31  2:53    21   187 1:02:21  28.9     23   208   44:49  6:14         
  201     2:08:48 Annette ROBERTSON       Toronto        6/10  W40 - 44      376    9    223   22:54  3:04    9    232 1:07:26  26.7     1    116   38:29  5:21         
  202     2:08:50 Ross RAE                Belleville    30/34  M45 - 49      317    20   175   20:00  2:40    20   126   57:50  31.1     33   244   51:01  7:06         
  203     2:09:00 Shirley MYERS           Kingston       2/5   W50 - 54      283    4    248   26:49  3:35    2    198 1:03:17  28.4     1    122   38:55  5:25         
  204     2:09:04 Ben EBY                 Kingston      30/33  M35 - 39      213    16    91   17:28  2:20    27   131   58:02  31.0     32   253   53:35  7:27         
  205     2:09:18 Kim FORKES              Ottawa         8/12  W20 - 24      289    9    158   19:33  2:37    10   240 1:08:58  26.1     6    159   40:48  5:40         
  206     2:09:25 David BUCK              Tillsonburg   31/33  M35 - 39      480    30   228   23:22  3:07    31   179 1:01:32  29.3     30   202   44:32  6:12         
  207     2:09:59 Allison STAKIW          Saskatoon      9/14  W25 - 29      489    13   249   26:56  3:36    8    201 1:03:28  28.4     6    139   39:36  5:30         
  208     2:10:00 Brodie MCDONELL         Kanata        20/21  M30 - 34      333    18   229   24:01  3:13    17   177 1:01:24  29.3     18   204   44:36  6:12         
  209 CLY 2:10:23 Karilene MONTGOMERY     Kingston       9/14  W45 - 49      490    5    117   18:05  2:25    6    168 1:00:32  29.7     12   246   51:48  7:12         
  210     2:10:39 Beth RENNISON           Hamilton       7/10  W40 - 44      476    4    133   18:35  2:29    6    197 1:03:15  28.5     9    236   48:50  6:47         
  211     2:10:46 Julie REID              Kingston       9/12  W20 - 24      350    6    147   19:01  2:33    7    218 1:05:31  27.5     9    217   46:15  6:26         
  212     2:11:04 Justine AMARO           Kingston      18/28  W30 - 34      280    23   227   23:13  3:06    17   212 1:05:06  27.6     17   181   42:46  5:57         
  213     2:11:18 Lynne ROUSSEAU          Yarker         8/10  W40 - 44      234    7    161   19:38  2:38    7    217 1:05:20  27.6     8    218   46:20  6:27         
  214     2:11:21 Kevin YOUNG             Bath          13/14  M50 - 54      365    14   261   30:05  4:01    13   148   59:10  30.4     12   174   42:07  5:51         
  215     2:11:26 Sonya BENN              Mississauga   19/28  W30 - 34      320    9     72   17:02  2:17    20   231 1:07:20  26.7     20   223   47:04  6:33         
  216     2:11:32 L. CUNNINGHAM           Wolfe Island  14/21  W35 - 39      474    12   141   18:51  2:31    11   189 1:02:30  28.8     16   242   50:11  6:59         
  217     2:11:56 Jocelyn ISAACS-ERB      Kingston      20/28  W30 - 34      358    17   200   21:12  2:50    21   235 1:08:10  26.4     16   179   42:36  5:55         
  218     2:12:06 Elizabeth CRACKNELL     Newmarket     21/28  W30 - 34      477    18   201   21:13  2:50    15   190 1:02:31  28.8     21   235   48:24  6:44         
  219     2:12:23 Charles GOSSELIN        Kingston       5/5   Junior Men    443    5    216   22:15  2:58    5    206 1:03:48  28.2     4    219   46:21  6:27         
  220     2:12:43 Shawn LA PLANTE         Bath          32/33  M35 - 39      209    32   260   30:02  4:01    30   176 1:01:16  29.4     27   166   41:26  5:46         
  221 CLY 2:12:47 Sarah OUGHTON           Toronto       10/14  W25 - 29      479    7    134   18:40  2:30    9    211 1:04:55  27.7     13   238   49:13  6:51         
  222     2:12:56 Mel THERIEN             Harrowsmith    4/4   M55 - 59      231    4    224   22:57  3:04    4    216 1:05:19  27.6     3    205   44:42  6:13         
  223     2:12:57 Antonio LEE             Brampton      23/24  M40 - 44      469    24   264   30:41  4:06    19   145   58:57  30.5     21   189   43:20  6:02         
  224     2:13:00 Wendy MCCOY             Marmora       15/21  W35 - 39      238    16   218   22:24  3:00    12   203 1:03:33  28.3     14   224   47:04  6:33         
  225     2:13:40 Mike MCNEILL            Napanee       14/14  M50 - 54      411    12   246   26:39  3:34    12   147   59:10  30.4     14   233   47:52  6:39         
  226     2:14:40 Wayne GOLLOGLY          Gananoque      1/2   M65 - 69      429    1    198   21:02  2:49    2    241 1:09:11  26.0     1    200   44:27  6:11         
  227     2:14:49 Martha PHILLIPS         Belleville     9/10  W40 - 44      295    8    212   21:54  2:56    8    228 1:06:43  27.0     7    197   44:13  6:09    2:00 
  228     2:14:54 Donna OCONNOR           Kingston       3/5   W50 - 54      291    2    183   20:11  2:42    4    244 1:10:01  25.7     3    206   44:42  6:13         
  229     2:15:00 Erica MOCKLER           Kingston      10/12  W20 - 24      371    11   207   21:34  2:53    8    225 1:06:23  27.1     11   225   47:05  6:33         
  230     2:15:19 Tim GORDANIER           Kingston      31/34  M45 - 49      409    31   241   25:54  3:28    30   207 1:04:06  28.1     27   213   45:20  6:18         
  231     2:15:52 Lori KIDMAN             Oakville      22/28  W30 - 34      473    19   209   21:35  2:53    11   174 1:00:59  29.5     24   250   53:20  7:25         
  232     2:17:47 Lucienne DICKINSON      Kingston       4/5   W50 - 54      250    3    239   25:17  3:23    3    204 1:03:37  28.3     4    237   48:53  6:48         
  233     2:18:35 Kathy RICE              Roslin         1/3   W60 - 64      279    1    213   22:02  2:57    1    242 1:09:42  25.8     1    222   46:52  6:31         
  234     2:18:56 Dwayne DONNELLY         Kingston      32/34  M45 - 49      352    32   250   27:15  3:38    29   183 1:01:56  29.1     32   241   49:46  6:55         
  235     2:19:06 Nicolette MCGRAW        Kingston      10/14  W45 - 49      431    13   236   24:48  3:19    10   222 1:05:59  27.3     10   234   48:20  6:43         
  236     2:19:43 Ashley SAUNDERS         Kingston      11/12  W20 - 24      349    12   219   22:27  3:00    11   247 1:10:55  25.4     10   220   46:23  6:27         
  237     2:20:00 Courtney BEECH          Kingston      12/12  W20 - 24      405    5    145   18:59  2:32    9    233 1:07:33  26.6     12   252   53:29  7:26         
  238     2:20:34 Gillian KELLY           Kingston       2/3   W55 - 59      436    2    244   26:22  3:31    2    229 1:06:52  26.9     2    229   47:21  6:35         
  239     2:20:40 Theresa WALLACE         Ottawa        11/14  W45 - 49      207    11   230   24:04  3:13    11   223 1:06:14  27.2     11   243   50:22  7:00         
  240     2:20:53 Semra GULDER            Ottawa        12/14  W45 - 49      278    3     85   17:19  2:19    14   260 1:19:28  22.7     8    195   44:06  6:08         
  241     2:21:00 Jennifer FORKES         Toronto       11/14  W25 - 29      299    9    171   19:50  2:39    11   252 1:13:54  24.4     12   228   47:16  6:34         
  242     2:22:15 Donald FARQUHAR         Kingston      33/34  M45 - 49      379    34   262   30:35  4:05    33   224 1:06:15  27.2     28   214   45:27  6:19         
  243     2:22:55 Alison KABAROFF         Kingston      12/14  W25 - 29      271    10   197   21:01  2:49    13   262 1:21:24  22.1     8    155   40:32  5:38         
  244     2:23:33 Donald WHITE            Kingston      21/21  M30 - 34      260    21   269   40:51  5:27    21   226 1:06:29  27.1     7     71   36:14  5:02         
  245     2:24:01 Laurie LOCKERBIE        Kingston      13/14  W45 - 49      273    12   232   24:15  3:14    12   234 1:07:55  26.5     13   247   51:52  7:13         
  246     2:25:08 Karen YEATES            Kingston      16/21  W35 - 39      262    17   221   22:51  3:03    18   251 1:12:55  24.7     15   239   49:23  6:52         
  247     2:25:29 Fiona MCDONALD          Kingston      17/21  W35 - 39      430    15   217   22:19  2:59    17   245 1:10:14  25.6     17   248   52:57  7:22         
  248     2:28:16 Brian HINTON            Toronto       24/24  M40 - 44      347    21   178   20:03  2:41    24   253 1:14:04  24.3     24   254   54:10  7:32         
  249     2:28:23 Ron WELLS               Kingston       9/9   M25 - 29      311    9    268   35:01  4:41    9    238 1:08:47  26.2     9    203   44:36  6:12         
  250     2:30:19 Charlene FRITZ          Etobicoke     13/14  W25 - 29      467    14   253   28:17  3:47    12   256 1:16:44  23.5     10   212   45:19  6:18         
  251     2:30:19 Julie STAKIW            Kingston      23/28  W30 - 34      255    27   243   26:14  3:30    24   255 1:14:40  24.1     22   240   49:26  6:52         
  252     2:31:17 John FORSTER            Kanata         2/2   M60 - 64      464    2    245   26:32  3:33    2    227 1:06:35  27.0     2    258   58:11  8:05         
  253     2:34:05 Tamie GAUDET            Joyceville    18/21  W35 - 39      327    19   259   29:45  3:58    16   239 1:08:54  26.1     19   256   55:27  7:43         
  254     2:35:37 Lucie LEFEBVRE          Kingston      14/14  W45 - 49      442    14   251   27:26  3:40    13   250 1:12:49  24.7     14   255   55:22  7:42         
  255     2:36:39 Jennifer WUDRICH        Ottawa        24/28  W30 - 34      413    22   226   23:04  3:05    23   246 1:10:30  25.5     27   263 1:03:07  8:46         
  256     2:36:49 Kathleen WILLIAMSON     Hamilton      25/28  W30 - 34      319    14   170   19:48  2:39    25   259 1:19:07  22.8     26   257   57:56  8:03         
  257     2:38:24 Peter SLAUGHTER         Kingston      34/34  M45 - 49      248    33   252   27:36  3:41    34   248 1:12:09  24.9     34   259   58:40  8:09         
  258     2:38:52 Virginia WINFIELD       Ottawa        19/21  W35 - 39      458    18   255   28:34  3:49    20   257 1:17:06  23.3     18   249   53:13  7:24         
  259     2:42:50 Brian JEWITT            Cantley        2/2   M65 - 69      454    2    247   26:49  3:35    1    236 1:08:18  26.4     2    267 1:07:43  9:25         
  260     2:46:14 Crystal GRASS           Kingston      26/28  W30 - 34      471    28   254   28:25  3:48    26   266 1:26:18  20.9     23   245   51:32  7:10         
  261     2:48:05 Tricia KIERS            Kingston      27/28  W30 - 34      478    26   242   25:55  3:28    27   269 1:28:50  20.3     25   251   53:21  7:25         
  262     2:48:42 Lori CHENIER            Kingston      20/21  W35 - 39      406    21   267   32:25  4:20    19   254 1:14:36  24.1     20   262 1:01:43  8:35         
  263     2:50:11 Danielle CHANDA         Belleville    14/14  W25 - 29      449    12   240   25:40  3:26    14   264 1:23:39  21.5     14   260 1:00:53  8:28         
  264     2:53:37 Elizabeth EICKMEIER     Howe Island    2/3   W60 - 64      287    3    266   31:31  4:13    2    258 1:17:14  23.3     2    264 1:04:53  9:01         
  265     2:53:56 Terry BURNS             Kingston       5/5   W50 - 54      221    5    257   28:46  3:51    5    263 1:23:35  21.5     5    261 1:01:35  8:34         
  266     3:02:10 Janet POULOS            Kingston      10/10  W40 - 44      481                              10                         10   271 1:15:50 10:32         
  267     3:03:58 Lynda MILINA            Ottawa        21/21  W35 - 39      355    20   263   30:37  4:05    21   265 1:24:50  21.2     21   268 1:08:32  9:32         
  268     3:03:59 Ruth GEORGE             Kingston       1/1   W65 - 69      351    1    256   28:35  3:49    1    261 1:21:06  22.2     1    270 1:14:18 10:20         
  269     3:05:44 Lynne GINSBURG          Kingston       3/3   W60 - 64      263    2    265   31:02  4:09    3    268 1:27:38  20.5     3    265 1:07:05  9:19         
  270     3:07:05 Wendi CODE              Kingston      28/28  W30 - 34      235    25   238   24:58  3:20    28   270 1:32:39  19.4     28   269 1:09:29  9:39         
  271     3:16:44 Neale GINSBURG          Toronto       33/33  M35 - 39      264    33   270   42:03  5:37    33   267 1:27:36  20.5     33   266 1:07:06  9:20         
  272 DNF 3:46:12 Ruth CRAFTS             Kingston       3/3   W55 - 59      267    3    271   47:03  6:17    3    271 1:42:06  17.6     3    272 1:17:03 10:43